KEET

Shelby County Airport

Alabaster, Alabama, USA
METAR KEET 220953Z AUTO 00000KT 3SM -RA BR OVC009 22/21 A3003 RMK AO2 RAB26 SLP162 P0001 T02170206
Observed Flight Rules
May-22 @ 09:53 UTC (21 minutes ago) Instrument Flight Rules
Visibility Clouds Conditions
3 miles
  • Overcast at 900' AGL
  • Light Rain
  • Mist
Temperatures Readings Precipitation
Current 22°C / 72°F
Dewpoint 21°C / 70°F
Humidity 94%
Altimeter 30.03" Hg
Pressure 1016.2 hPa
Elevation 173
Current Rain 0.01
METAR KEET 220953Z AUTO 00000KT 3SM -RA BR OVC009 22/21 A3003 RMK AO2 RAB26 SLP162 P0001 T02170206
Observed Flight Rules
May-22 @ 09:53 UTC
(21 minutes ago)
IFR
Clouds
  • Overcast at 900' AGL
Conditions
  • Light Rain
  • Mist
Temperature Dewpoint
22°C / 72°F 21°C / 70°F
Humidity Altimeter Pressure
94% 30.03" Hg 1016.2 hPa
Current Rain
0.01